Time;durP1;ratioP1;P1;durP2;ratioP2;P2;SDS_P1;SDS_P2;PMS_P1;PMS_P2;Temp;Humidity;BMP_temperature;BMP_pressure;BME280_temperature;BME280_humidity;BME280_pressure;Samples;Min_cycle;Max_cycle;Signal;HPM_P1;HPM_P2
2022/06/11 00:01:23;;;;;;;21.65;6.22;;;19.00;99.90;;;18.48;77.41;101796.59;5114215;28;20043;-69
2022/06/11 00:03:58;;;;;;;15.80;6.15;;;18.80;99.90;;;19.16;77.95;101936.28;5096111;28;20553;-69
2022/06/11 00:06:30;;;;;;;13.23;6.03;;;18.70;99.90;;;19.12;78.53;101935.47;5114113;28;20101;-69
2022/06/11 00:08:59;;;;;;;16.35;5.75;;;18.60;99.90;;;19.12;78.96;101937.25;5114079;28;20071;-69
2022/06/11 00:11:28;;;;;;;12.55;6.20;;;18.60;99.90;;;19.12;79.22;101940.84;5113723;28;20485;-69
2022/06/11 00:13:58;;;;;;;15.63;6.30;;;18.60;99.90;;;19.15;79.47;101929.13;5095962;28;20138;-69
2022/06/11 00:16:28;;;;;;;18.95;6.75;;;18.60;99.90;;;18.93;79.76;101910.84;5114153;28;20035;-69
2022/06/11 00:18:58;;;;;;;16.00;6.23;;;18.60;99.90;;;19.06;79.67;101921.28;5113626;28;20501;-70
2022/06/11 00:21:31;;;;;;;14.88;6.05;;;18.60;99.90;;;19.07;79.61;101933.78;5113872;28;20443;-69
2022/06/11 00:24:00;;;;;;;14.45;6.15;;;18.60;99.90;;;19.07;79.37;101933.78;5113730;28;20047;-69
2022/06/11 00:26:29;;;;;;;15.32;6.32;;;18.60;99.90;;;19.07;79.50;101934.66;5113661;28;20043;-69
2022/06/11 00:28:59;;;;;;;11.75;6.07;;;18.60;99.90;;;19.10;79.35;101931.03;5113882;28;20058;-69
2022/06/11 00:31:27;;;;;;;15.15;5.95;;;18.60;99.90;;;19.10;79.23;101928.34;5095622;28;20469;-69
2022/06/11 00:33:56;;;;;;;18.23;6.38;;;18.60;99.90;;;18.88;79.33;101910.06;5114066;28;20134;-69
2022/06/11 00:36:25;;;;;;;14.55;6.15;;;18.60;99.90;;;18.98;79.18;101910.75;5113668;28;20381;-69
2022/06/11 00:38:53;;;;;;;14.23;5.93;;;18.60;99.90;;;18.69;79.10;101856.88;5113345;28;20132;-69
2022/06/11 00:41:26;;;;;;;17.30;5.65;;;18.70;99.90;;;18.80;79.09;101903.97;5095364;28;20078;-69
2022/06/11 00:43:55;;;;;;;11.55;5.65;;;18.50;99.90;;;18.87;79.14;101927.06;5113384;28;20043;-69
2022/06/11 00:46:50;;;;;;;14.32;6.05;;;18.50;99.90;;;18.87;79.00;101929.72;5113544;28;20058;-69
2022/06/11 00:49:27;;;;;;;12.60;5.68;;;18.40;99.90;;;18.85;79.14;101928.88;5113614;28;20048;-70
2022/06/11 00:52:07;;;;;;;12.57;5.47;;;18.40;99.90;;;18.89;78.85;101925.22;5112357;28;20396;-61
2022/06/11 00:54:39;;;;;;;10.10;5.30;;;18.30;99.90;;;18.72;79.48;101927.38;5112516;28;20047;-61
2022/06/11 00:57:09;;;;;;;12.93;5.50;;;18.30;99.90;;;18.69;80.21;101927.47;5112544;28;20495;-61
2022/06/11 00:59:43;;;;;;;16.85;6.30;;;18.30;99.90;;;18.61;81.17;101918.69;5112712;28;20473;-61
2022/06/11 01:02:14;;;;;;;7.88;5.18;;;18.20;99.90;;;18.70;81.32;101934.56;5112982;28;20067;-61
2022/06/11 01:04:50;;;;;;;14.50;5.95;;;18.20;99.90;;;18.80;81.04;101935.25;5112680;28;20052;-61
2022/06/11 01:08:14;;;;;;;13.00;5.80;;;18.30;99.90;;;18.78;80.95;101937.09;5112645;28;20118;-61
2022/06/11 01:11:05;;;;;;;11.40;5.40;;;18.30;99.90;;;18.80;80.86;101940.63;5093790;28;20081;-61
2022/06/11 01:13:41;;;;;;;13.27;6.20;;;18.30;99.90;;;18.71;80.65;101916.69;5071644;28;20123;-61
2022/06/11 01:16:17;;;;;;;11.85;5.30;;;18.40;99.90;;;18.84;80.66;101942.31;5071650;28;20477;-61
2022/06/11 01:18:57;;;;;;;9.77;5.53;;;18.40;99.90;;;18.86;80.46;101930.66;5071884;28;20041;-61
2022/06/11 01:21:36;;;;;;;14.02;5.28;;;18.40;99.90;;;18.86;80.32;101940.50;5072254;28;20076;-61
2022/06/11 01:24:41;;;;;;;10.13;5.18;;;18.40;99.90;;;18.83;79.95;101935.22;5071950;28;20048;-61
2022/06/11 01:27:40;;;;;;;12.80;5.50;;;18.40;99.90;;;18.01;79.28;101804.69;5070204;28;20060;-61
2022/06/11 01:30:13;;;;;;;19.45;5.50;;;18.40;99.90;;;18.54;78.92;101926.88;5071869;28;20064;-61
2022/06/11 01:32:52;;;;;;;15.00;5.72;;;18.20;99.90;;;18.44;78.83;101944.06;5071769;28;20106;-61
2022/06/11 01:35:45;;;;;;;20.85;6.20;;;18.10;99.90;;;18.45;78.73;101938.66;5071370;28;20044;-61
2022/06/11 01:38:25;;;;;;;18.60;5.95;;;18.00;99.90;;;18.41;78.68;101942.28;5071363;28;20068;-61
2022/06/11 01:41:02;;;;;;;16.38;6.35;;;18.00;99.90;;;18.43;78.03;101939.59;5071401;28;20047;-61
2022/06/11 01:43:36;;;;;;;22.50;7.47;;;18.00;99.90;;;18.09;77.22;101911.66;5071609;28;20066;-61
2022/06/11 01:46:09;;;;;;;20.23;6.80;;;17.90;99.90;;;18.12;76.70;101927.69;5071415;28;20494;-61
2022/06/11 01:48:38;;;;;;;23.42;7.20;;;17.80;99.90;;;18.28;76.24;101937.19;5071609;28;20123;-61
2022/06/11 01:51:17;;;;;;;23.23;7.13;;;17.80;99.90;;;18.37;75.91;101943.25;5071266;28;20366;-61
2022/06/11 01:54:18;;;;;;;23.65;6.63;;;17.90;99.90;;;18.43;75.41;101940.50;5071403;28;20512;-61
2022/06/11 01:57:18;;;;;;;21.38;6.80;;;17.90;99.90;;;18.40;75.38;101937.84;5071295;28;20486;-61
2022/06/11 02:00:16;;;;;;;21.08;6.28;;;17.90;99.90;;;18.41;75.05;101947.63;5069565;28;20493;-61
2022/06/11 02:03:09;;;;;;;19.38;6.20;;;17.90;99.90;;;18.34;74.93;101948.69;5065207;28;20098;-61
2022/06/11 02:05:54;;;;;;;20.08;6.07;;;17.90;99.90;;;18.30;74.87;101944.28;5071632;28;20053;-61
2022/06/11 02:08:29;;;;;;;23.83;6.93;;;17.90;99.90;;;18.32;75.00;101950.50;5071371;28;20044;-61
2022/06/11 02:11:07;;;;;;;24.02;7.18;;;17.90;99.90;;;18.36;74.77;101952.22;5071352;28;20045;-61
2022/06/11 02:13:43;;;;;;;25.65;7.50;;;17.90;99.90;;;18.37;74.86;101950.44;5071369;28;20127;-61
2022/06/11 02:16:21;;;;;;;21.88;6.88;;;17.90;99.90;;;18.36;74.58;101954.88;5071408;28;20124;-61
2022/06/11 02:18:55;;;;;;;27.00;7.50;;;17.90;99.90;;;18.36;74.17;101959.34;5071728;28;20068;-63
2022/06/11 02:21:29;;;;;;;22.33;6.85;;;17.90;99.90;;;18.30;74.37;101952.31;5075303;28;20044;-62
2022/06/11 02:24:05;;;;;;;26.30;7.18;;;17.90;99.90;;;18.27;74.43;101955.06;5075263;28;20041;-61
2022/06/11 02:26:40;;;;;;;25.73;7.57;;;17.80;99.90;;;18.31;74.39;101948.72;5075258;28;20091;-61
2022/06/11 02:29:11;;;;;;;30.65;8.13;;;17.90;99.90;;;18.29;74.00;101941.66;5075676;28;20053;-61
2022/06/11 02:31:45;;;;;;;24.90;7.32;;;17.90;99.90;;;18.27;73.88;101941.69;5075074;28;20044;-62
2022/06/11 02:34:19;;;;;;;25.38;7.05;;;17.80;99.90;;;18.22;74.04;101939.97;5074906;28;20109;-65
2022/06/11 02:36:56;;;;;;;27.17;8.10;;;17.80;99.90;;;18.21;73.88;101944.47;5074898;28;20121;-62
2022/06/11 02:39:28;;;;;;;22.98;7.30;;;17.80;99.90;;;18.16;74.22;101951.69;5074734;28;20106;-62
2022/06/11 02:41:57;;;;;;;29.33;7.20;;;17.70;99.90;;;18.16;74.41;101951.69;5074725;28;20105;-61
2022/06/11 02:44:26;;;;;;;29.83;7.85;;;17.70;99.90;;;18.20;74.65;101956.09;5075140;28;20048;-61
2022/06/11 02:46:54;;;;;;;24.45;8.13;;;17.70;99.90;;;18.18;74.44;101949.88;5074694;28;20475;-61
2022/06/11 02:49:28;;;;;;;26.75;7.80;;;17.80;99.90;;;18.21;74.60;101968.56;5074638;28;20424;-61
2022/06/11 02:52:02;;;;;;;27.63;7.55;;;17.80;99.90;;;18.22;74.63;101958.72;5074608;28;20051;-61
2022/06/11 02:54:30;;;;;;;28.52;7.50;;;17.80;99.90;;;18.20;74.76;101960.53;5074281;28;20449;-61
2022/06/11 02:57:01;;;;;;;25.85;7.45;;;17.70;99.90;;;18.17;74.72;101961.50;5074171;28;20028;-61
2022/06/11 02:59:30;;;;;;;28.65;7.85;;;17.70;99.90;;;18.14;74.81;101968.72;5074429;28;20125;-61
2022/06/11 03:01:59;;;;;;;33.08;7.97;;;17.70;99.90;;;18.09;75.09;101965.22;5074024;28;20047;-61
2022/06/11 03:04:32;;;;;;;25.20;7.97;;;17.70;99.90;;;18.03;75.23;101966.22;5074008;28;20056;-64
2022/06/11 03:07:01;;;;;;;23.00;7.18;;;17.60;99.90;;;18.14;75.02;101974.94;5074232;28;20478;-61
2022/06/11 03:09:34;;;;;;;29.63;8.30;;;17.60;99.90;;;18.08;75.16;101964.31;5073844;28;20048;-61
2022/06/11 03:12:05;;;;;;;28.20;8.07;;;17.60;99.90;;;18.07;75.37;101978.66;5090597;28;20158;-62
2022/06/11 03:14:34;;;;;;;31.02;8.43;;;17.60;99.90;;;18.12;75.48;101984.78;5096520;28;20139;-61
2022/06/11 03:17:03;;;;;;;28.80;8.10;;;17.60;99.90;;;18.14;75.56;101982.97;5114763;28;20579;-61
2022/06/11 03:19:33;;;;;;;22.63;7.47;;;17.60;99.90;;;18.09;75.60;101987.53;5114157;28;20104;-61
2022/06/11 03:22:01;;;;;;;28.08;7.97;;;17.60;99.90;;;17.93;75.89;101953.88;5114324;28;20209;-61
2022/06/11 03:24:30;;;;;;;27.63;7.20;;;17.60;99.90;;;18.08;76.05;101984.91;5114220;28;20048;-61
2022/06/11 03:26:58;;;;;;;31.38;8.13;;;17.60;99.90;;;18.00;76.37;101987.72;5114051;28;20094;-61
2022/06/11 03:29:29;;;;;;;33.80;8.93;;;17.50;99.90;;;17.91;76.38;101964.63;5113943;28;20070;-61
2022/06/11 03:31:57;;;;;;;24.10;7.63;;;17.60;99.90;;;18.11;76.48;101992.84;5114013;28;20071;-61
2022/06/11 03:34:26;;;;;;;31.80;8.43;;;17.60;99.90;;;18.04;76.49;101990.28;5113894;28;20386;-61
2022/06/11 03:36:57;;;;;;;30.00;8.02;;;17.60;99.90;;;18.05;76.50;101996.53;5114041;28;20044;-61
2022/06/11 03:39:26;;;;;;;30.00;8.10;;;17.60;99.90;;;18.14;76.59;102007.06;5113664;28;20085;-61
2022/06/11 03:41:54;;;;;;;32.50;8.90;;;17.60;99.90;;;18.03;76.69;102009.94;5113790;28;20485;-61
2022/06/11 03:44:24;;;;;;;34.47;8.82;;;17.60;99.90;;;17.93;77.41;102000.28;5113615;28;20067;-61
2022/06/11 03:46:52;;;;;;;32.95;8.25;;;17.50;99.90;;;18.04;77.46;102010.81;5113680;28;20071;-61
2022/06/11 03:49:22;;;;;;;29.20;8.85;;;17.60;99.90;;;18.08;77.42;102006.31;5113599;28;20067;-61
2022/06/11 03:51:50;;;;;;;26.90;7.85;;;17.60;99.90;;;18.01;77.51;101984.09;5113755;28;20456;-61
2022/06/11 03:54:20;;;;;;;31.67;8.25;;;17.60;99.90;;;18.03;77.77;102009.06;5095466;28;20131;-61
2022/06/11 03:56:51;;;;;;;28.80;8.57;;;17.60;99.90;;;18.05;77.98;102015.28;5113684;28;20044;-61
2022/06/11 03:59:20;;;;;;;30.42;8.55;;;17.60;99.90;;;18.09;78.04;102018.78;5113581;28;20080;-61
2022/06/11 04:01:48;;;;;;;30.65;9.02;;;17.60;99.90;;;18.11;78.16;102025.00;5113570;28;20035;-61
2022/06/11 04:04:20;;;;;;;29.45;9.45;;;17.60;99.90;;;18.11;78.23;102025.88;5113812;28;20115;-61
2022/06/11 04:06:52;;;;;;;32.63;9.00;;;17.60;99.90;;;18.12;78.39;102027.63;5113502;28;20063;-61
2022/06/11 04:09:26;;;;;;;35.38;8.35;;;17.70;99.90;;;18.07;78.86;102026.84;5113130;28;20101;-61
2022/06/11 04:11:55;;;;;;;35.38;9.40;;;17.60;99.90;;;18.14;78.94;102027.63;5113370;28;20070;-61
2022/06/11 04:14:24;;;;;;;33.17;8.48;;;17.70;99.90;;;18.14;78.97;102023.16;5113290;28;20398;-59
2022/06/11 04:16:55;;;;;;;31.88;8.80;;;17.70;99.90;;;18.20;78.98;102032.88;5113164;28;20134;-59
2022/06/11 04:19:28;;;;;;;34.70;9.50;;;17.80;99.90;;;18.21;79.32;102035.53;5113435;28;20043;-59
2022/06/11 04:21:57;;;;;;;32.00;9.82;;;17.80;99.90;;;18.30;79.36;102047.88;5113232;28;20044;-59
2022/06/11 04:24:29;;;;;;;30.53;8.70;;;17.80;99.90;;;18.32;79.32;102044.28;5113378;28;20070;-59
2022/06/11 04:27:01;;;;;;;35.75;9.80;;;17.90;99.90;;;18.33;79.76;102037.97;5112845;28;20381;-58
2022/06/11 04:29:33;;;;;;;38.20;10.38;;;17.90;99.90;;;18.32;79.96;102038.91;5094480;28;20529;-59
2022/06/11 04:32:05;;;;;;;43.60;10.50;;;17.90;99.90;;;18.34;80.35;102038.88;5112816;28;20378;-59
2022/06/11 04:34:35;;;;;;;35.72;10.00;;;18.00;99.90;;;18.31;80.58;102042.47;5113155;28;20063;-60
2022/06/11 04:37:04;;;;;;;37.70;10.38;;;17.90;99.90;;;18.40;81.08;102050.38;5112812;28;20138;-60
2022/06/11 04:39:34;;;;;;;38.47;9.98;;;18.00;99.90;;;18.37;81.36;102052.25;5112605;28;20474;-60
2022/06/11 04:42:03;;;;;;;45.17;10.90;;;18.00;99.90;;;18.38;81.54;102057.56;5112518;28;20039;-60
2022/06/11 04:44:35;;;;;;;33.22;10.93;;;18.00;99.90;;;18.42;81.59;102051.28;5112844;28;20477;-59
2022/06/11 04:47:06;;;;;;;39.03;11.23;;;18.00;99.90;;;18.47;81.52;102051.16;5112949;28;20032;-59
2022/06/11 04:49:34;;;;;;;41.22;10.70;;;18.10;99.90;;;18.62;81.34;102062.50;5113530;28;20051;-59
2022/06/11 04:52:04;;;;;;;38.53;10.30;;;18.10;99.90;;;18.57;81.47;102055.47;5112744;28;20043;-59
2022/06/11 04:54:34;;;;;;;38.55;10.60;;;18.20;99.90;;;18.46;81.72;102041.38;5112801;28;20055;-59
2022/06/11 04:57:04;;;;;;;47.58;11.93;;;18.20;99.90;;;18.65;81.80;102065.13;5113003;28;20190;-59
2022/06/11 04:59:32;;;;;;;39.88;10.43;;;18.20;99.90;;;18.70;81.75;102070.41;5112838;28;20048;-59
2022/06/11 05:02:02;;;;;;;43.28;11.38;;;18.20;99.90;;;18.74;81.62;102070.31;5113111;28;20063;-59
2022/06/11 05:04:31;;;;;;;38.42;10.93;;;18.30;99.90;;;18.71;81.81;102078.44;5113245;28;20047;-59
2022/06/11 05:06:59;;;;;;;46.83;11.77;;;18.30;99.90;;;18.80;81.70;102064.84;5113019;28;20063;-59
2022/06/11 05:09:30;;;;;;;45.30;11.57;;;18.40;99.90;;;18.79;81.48;102073.78;5112616;28;20095;-59
2022/06/11 05:12:00;;;;;;;44.13;11.27;;;18.40;99.90;;;18.85;81.64;102079.03;5112855;28;20043;-59
2022/06/11 05:14:29;;;;;;;45.45;11.85;;;18.40;99.90;;;18.84;81.59;102065.66;5112474;28;20105;-59
2022/06/11 05:16:58;;;;;;;41.53;10.80;;;18.40;99.90;;;18.91;81.50;102067.34;5112723;28;20523;-59
2022/06/11 05:19:28;;;;;;;48.15;11.02;;;18.40;99.90;;;18.88;81.42;102067.38;5112472;28;20046;-59
2022/06/11 05:21:57;;;;;;;45.15;11.23;;;18.50;99.90;;;18.91;81.46;102073.56;5112393;28;20040;-59
2022/06/11 05:24:26;;;;;;;40.10;10.98;;;18.50;99.90;;;18.99;81.66;102070.72;5112537;28;20433;-59
2022/06/11 05:26:57;;;;;;;49.15;11.88;;;18.50;99.90;;;19.09;80.97;102074.09;5112708;28;20123;-59
2022/06/11 05:29:32;;;;;;;32.72;9.88;;;18.60;99.90;;;19.13;80.74;102082.06;5112627;28;20069;-59
2022/06/11 05:32:01;;;;;;;39.35;10.43;;;18.70;99.90;;;19.16;80.16;102083.81;5112268;28;20119;-59
2022/06/11 05:34:32;;;;;;;41.83;11.05;;;18.70;99.90;;;19.04;79.99;102050.09;5112189;28;20042;-59
2022/06/11 05:37:03;;;;;;;38.55;11.10;;;18.80;99.90;;;19.45;79.59;102084.13;5112231;28;20434;-59
2022/06/11 05:39:38;;;;;;;36.80;10.85;;;19.00;99.90;;;19.57;79.14;102089.22;5112365;28;20071;-59
2022/06/11 05:42:07;;;;;;;36.38;10.07;;;19.10;99.90;;;19.64;78.57;102088.19;5112075;28;20036;-59
2022/06/11 05:44:37;;;;;;;38.20;10.90;;;19.30;99.90;;;19.70;78.11;102088.91;5112592;28;20039;-59
2022/06/11 05:47:08;;;;;;;44.42;11.60;;;19.30;99.90;;;19.76;77.80;102074.50;5112004;28;20040;-59
2022/06/11 05:49:39;;;;;;;;;;;19.50;99.90;;;19.97;77.01;102094.56;5112450;28;20465;-59
2022/06/11 05:52:13;;;;;;;38.58;9.77;;;19.60;99.90;;;20.01;76.95;102093.59;5111985;28;19926;-59
2022/06/11 05:54:43;;;;;;;41.78;9.93;;;19.70;99.90;;;20.05;76.48;102096.19;5113506;28;20134;-59
2022/06/11 05:57:15;;;;;;;46.10;10.55;;;19.70;99.90;;;20.21;75.97;102100.28;5097743;28;20074;-59
2022/06/11 05:59:50;;;;;;;36.28;9.60;;;19.80;99.90;;;20.30;75.68;102097.38;5115666;28;20047;-59
2022/06/11 06:02:21;;;;;;;32.53;9.43;;;19.90;99.90;;;20.31;75.30;102099.13;5115813;28;20040;-59
2022/06/11 06:04:50;;;;;;;40.33;11.05;;;20.00;99.90;;;20.44;74.87;102105.97;5115924;28;20071;-59
2022/06/11 06:07:18;;;;;;;36.33;10.25;;;20.10;99.90;;;20.48;74.15;102107.66;5116017;28;20051;-59
2022/06/11 06:09:47;;;;;;;35.65;9.93;;;20.10;99.90;;;20.42;73.40;102104.25;5116117;28;20059;-59
2022/06/11 06:12:17;;;;;;;36.17;9.93;;;20.00;99.90;;;20.52;72.97;102108.44;5115738;28;20048;-59
2022/06/11 06:14:47;;;;;;;31.92;9.15;;;20.10;99.90;;;20.54;72.28;102087.78;5115804;28;20040;-60
2022/06/11 06:17:15;;;;;;;31.77;8.43;;;20.20;99.90;;;20.73;71.26;102101.66;5115785;28;20401;-59
2022/06/11 06:20:00;;;;;;;36.45;9.20;;;20.30;99.90;;;20.76;71.37;102106.94;5097116;28;20043;-59
2022/06/11 06:22:28;;;;;;;31.92;8.88;;;20.40;99.90;;;20.90;71.75;102110.16;5115172;28;20126;-59
2022/06/11 06:24:57;;;;;;;34.50;9.38;;;20.50;99.90;;;20.97;71.27;102109.03;5097307;28;20546;-59
2022/06/11 06:27:25;;;;;;;36.55;10.13;;;20.60;99.90;;;21.12;71.05;102101.47;5115491;28;20122;-59
2022/06/11 06:29:55;;;;;;;35.50;9.18;;;20.70;99.90;;;21.01;70.52;102108.06;5115295;28;20149;-59
2022/06/11 06:32:23;;;;;;;31.93;9.33;;;20.70;99.90;;;21.16;69.53;102121.09;5115194;28;20050;-59
2022/06/11 06:34:52;;;;;;;42.22;10.43;;;20.70;99.90;;;21.24;68.67;102117.28;5115152;28;20130;-59
2022/06/11 06:37:20;;;;;;;33.53;9.90;;;20.80;99.90;;;21.35;68.50;102120.53;5114965;28;20365;-59
2022/06/11 06:39:49;;;;;;;37.45;9.27;;;20.90;99.90;;;21.37;68.50;102128.56;5115687;28;20071;-59
2022/06/11 06:42:17;;;;;;;42.35;9.95;;;21.00;99.90;;;21.47;68.34;102124.69;5115084;28;20075;-59
2022/06/11 06:44:46;;;;;;;34.25;9.32;;;21.10;99.90;;;21.57;68.79;102131.56;5115097;28;20500;-59
2022/06/11 06:47:16;;;;;;;37.67;10.60;;;21.10;99.90;;;21.73;68.89;102127.50;5115059;28;20104;-60
2022/06/11 06:49:44;;;;;;;33.85;9.77;;;21.30;99.90;;;21.70;67.36;102122.19;5114770;28;20035;-59
2022/06/11 06:52:13;;;;;;;35.95;9.18;;;21.30;99.90;;;21.80;67.15;102126.41;5114984;28;20104;-60
2022/06/11 06:54:41;;;;;;;32.22;8.65;;;21.40;99.90;;;21.76;67.35;102116.63;5114904;28;20071;-60
2022/06/11 06:57:10;;;;;;;31.95;9.55;;;21.40;99.90;;;21.87;66.97;102129.81;5096097;28;20047;-59
2022/06/11 06:59:38;;;;;;;29.48;9.27;;;21.50;99.90;;;21.81;66.44;102124.59;5114628;28;20078;-59
2022/06/11 07:02:07;;;;;;;26.92;8.82;;;21.50;99.90;;;21.91;65.55;102129.63;5114410;28;20100;-59
2022/06/11 07:04:37;;;;;;;28.48;9.30;;;21.50;99.90;;;22.04;64.70;102141.81;5114102;28;20032;-59
2022/06/11 07:07:06;;;;;;;34.83;9.50;;;21.60;99.90;;;22.04;64.93;102139.13;5114424;28;20062;-59
2022/06/11 07:09:34;;;;;;;31.33;9.07;;;21.70;99.90;;;22.01;65.26;102139.22;5114535;28;20047;-59
2022/06/11 07:12:03;;;;;;;31.40;9.10;;;21.60;99.90;;;22.10;65.54;102138.06;5095924;28;20527;-59
2022/06/11 07:14:31;;;;;;;27.02;8.32;;;21.70;99.90;;;22.23;64.83;102144.81;5114071;28;20073;-59
2022/06/11 07:17:05;;;;;;;29.23;9.43;;;21.80;99.90;;;22.22;63.17;102140.38;5114098;28;20120;-59
2022/06/11 07:19:39;;;;;;;30.45;9.80;;;21.80;99.90;;;22.18;63.53;102144.94;5114294;28;20403;-59
2022/06/11 07:22:23;;;;;;;34.30;9.27;;;21.80;99.90;;;22.19;62.29;102141.34;5114377;28;20441;-59
2022/06/11 07:24:52;;;;;;;33.72;9.02;;;21.80;99.90;;;22.15;62.64;102163.03;5114039;28;20093;-60
2022/06/11 07:27:27;;;;;;;36.22;9.73;;;21.80;99.90;;;22.24;62.63;102147.44;5113936;28;20134;-59
2022/06/11 07:29:59;;;;;;;28.92;8.50;;;21.80;99.90;;;22.09;61.27;102144.34;5113624;28;20428;-59
2022/06/11 07:32:35;;;;;;;33.65;8.30;;;21.70;99.90;;;22.12;61.44;102145.16;5114157;28;20051;-59
2022/06/11 07:35:07;;;;;;;26.58;8.05;;;21.70;99.90;;;22.29;60.16;102152.69;5114320;28;20119;-59
2022/06/11 07:37:36;;;;;;;22.48;6.85;;;21.90;99.90;;;22.27;58.13;102151.88;5114123;28;20138;-59
2022/06/11 07:40:07;;;;;;;26.90;8.43;;;21.80;99.90;;;22.26;58.77;102144.72;5113687;28;20114;-59
2022/06/11 07:42:36;;;;;;;28.42;8.10;;;21.90;99.90;;;22.34;58.17;102154.31;5113946;28;20108;-59
2022/06/11 07:45:05;;;;;;;26.45;7.55;;;22.00;99.90;;;22.38;57.83;102158.69;5113893;28;20418;-59
2022/06/11 07:50:28;;;;;;;22.63;7.38;;;22.10;99.90;;;22.27;57.15;102160.84;5113608;28;20511;-59
2022/06/11 07:52:58;;;;;;;27.35;8.25;;;22.00;99.90;;;22.44;56.34;102163.88;5113889;28;20043;-60
2022/06/11 07:55:27;;;;;;;21.33;7.43;;;22.10;99.90;;;22.43;56.70;102158.53;5114431;28;20576;-60
2022/06/11 07:57:56;;;;;;;23.77;7.53;;;22.10;99.90;;;22.55;55.79;102159.94;5113700;28;20461;-59
2022/06/11 08:00:28;;;;;;;26.17;7.47;;;22.20;99.90;;;22.52;57.13;102163.63;5113764;28;20400;-60
2022/06/11 08:02:56;;;;;;;30.30;9.20;;;22.20;99.90;;;22.70;57.01;102168.44;5113515;28;20079;-59
2022/06/11 08:05:26;;;;;;;24.67;8.50;;;22.30;99.90;;;22.80;56.97;102177.13;5113831;28;20070;-59
2022/06/11 08:07:55;;;;;;;26.70;7.13;;;22.40;99.90;;;22.83;55.03;102163.50;5113788;28;20134;-59
2022/06/11 08:10:27;;;;;;;19.83;7.50;;;22.50;99.90;;;22.89;55.35;102174.09;5113955;28;20320;-59
2022/06/11 08:12:56;;;;;;;24.20;7.80;;;22.60;99.90;;;22.91;54.18;102174.91;5113561;28;20401;-59
2022/06/11 08:15:25;;;;;;;25.38;7.25;;;22.60;99.90;;;22.91;54.93;102177.63;5113729;28;20449;-59
2022/06/11 08:17:53;;;;;;;23.67;7.15;;;22.60;99.90;;;22.84;54.11;102176.94;5112952;28;20048;-59
2022/06/11 08:20:26;;;;;;;24.10;7.07;;;22.50;99.90;;;22.89;54.37;102174.97;5113823;28;20427;-60
2022/06/11 08:22:55;;;;;;;24.23;7.93;;;22.50;99.90;;;22.99;54.38;102175.53;5113144;28;20100;-60
2022/06/11 08:25:24;;;;;;;24.40;6.88;;;22.70;99.90;;;23.04;54.81;102173.56;5113284;28;20130;-60
2022/06/11 08:27:54;;;;;;;24.95;7.68;;;22.70;99.90;;;23.16;54.03;102175.81;5113087;28;20039;-59
2022/06/11 08:30:25;;;;;;;26.10;8.02;;;22.80;99.90;;;23.17;53.44;102169.50;5113447;28;20082;-59
2022/06/11 08:32:54;;;;;;;26.17;7.18;;;22.80;99.90;;;23.05;54.61;102167.22;5113045;28;20048;-59
2022/06/11 08:35:28;;;;;;;24.77;7.53;;;22.70;99.90;;;23.05;54.26;102180.72;5113590;28;20415;-60
2022/06/11 08:37:56;;;;;;;23.13;6.85;;;22.70;99.90;;;23.07;53.37;102177.00;5113936;28;20096;-60
2022/06/11 08:40:32;;;;;;;27.45;7.70;;;22.70;99.90;;;23.23;54.05;102163.84;5113188;28;20040;-59
2022/06/11 08:43:03;;;;;;;22.52;7.78;;;22.90;99.90;;;23.21;52.85;102176.53;5112965;28;20044;-60
2022/06/11 08:45:42;;;;;;;26.83;7.40;;;22.90;99.90;;;23.33;52.59;102168.03;5094906;28;20516;-59
2022/06/11 08:48:22;;;;;;;26.45;7.30;;;23.00;99.90;;;23.36;53.18;102180.53;5112902;28;20043;-60
2022/06/11 08:51:09;;;;;;;23.13;7.35;;;23.00;99.90;;;23.51;52.14;102175.47;5094690;28;20134;-60
2022/06/11 08:53:39;;;;;;;24.30;7.40;;;23.20;99.90;;;23.45;51.73;102137.88;5094661;28;20051;-59
2022/06/11 08:56:18;;;;;;;23.70;7.10;;;23.30;99.90;;;23.56;51.74;102176.16;5112696;28;20392;-60
2022/06/11 08:59:09;;;;;;;17.90;6.60;;;23.20;99.90;;;23.50;51.99;102170.97;5094620;28;20043;-60
2022/06/11 09:01:50;;;;;;;22.27;6.90;;;23.20;99.90;;;23.55;54.33;102169.00;5112610;28;20043;-60
2022/06/11 09:04:50;;;;;;;24.30;7.07;;;23.20;99.90;;;23.59;53.64;102170.66;5112757;28;20042;-60
2022/06/11 09:07:40;;;;;;;24.98;7.60;;;23.20;99.90;;;23.61;53.47;102168.78;5112706;28;20040;-60
2022/06/11 09:10:32;;;;;;;24.75;8.00;;;23.20;99.90;;;23.58;53.07;102155.38;5112331;28;20430;-60
2022/06/11 09:13:26;;;;;;;24.30;7.15;;;23.30;99.90;;;23.70;53.47;102164.84;5112497;28;20116;-62
2022/06/11 09:16:09;;;;;;;24.00;7.13;;;23.30;99.90;;;23.83;53.68;102160.72;5112270;28;20111;-60
2022/06/11 09:19:03;;;;;;;23.80;7.10;;;23.60;99.90;;;23.86;52.84;102163.31;5112265;28;20489;-60
2022/06/11 09:21:48;;;;;;;22.90;6.43;;;23.50;99.90;;;23.96;51.98;102168.28;5112080;28;20416;-60
2022/06/11 09:24:58;;;;;;;20.85;6.75;;;23.70;99.90;;;24.00;51.08;102159.13;5112442;28;20534;-60
2022/06/11 09:27:36;;;;;;;23.75;7.38;;;23.70;99.90;;;23.90;51.72;102168.56;5109805;28;20060;-60
2022/06/11 09:30:09;;;;;;;19.38;6.55;;;23.60;99.90;;;23.86;51.50;102164.22;5116208;28;20055;-60
2022/06/11 09:32:46;;;;;;;21.92;7.05;;;23.60;99.90;;;23.55;51.54;102130.28;5116328;28;20152;-60
2022/06/11 09:35:21;;;;;;;23.92;6.93;;;23.40;99.90;;;23.72;52.97;102168.34;5116319;28;20135;-60
2022/06/11 09:38:06;;;;;;;23.60;7.68;;;23.40;99.90;;;23.75;53.79;102173.66;5116267;28;20096;-60
2022/06/11 09:40:42;;;;;;;27.10;7.82;;;23.40;99.90;;;23.64;54.52;102175.88;5116072;28;20081;-60
2022/06/11 09:43:31;;;;;;;29.70;8.13;;;23.30;99.90;;;23.39;56.57;102175.91;5116014;28;20374;-59
2022/06/11 09:46:13;;;;;;;30.27;8.68;;;23.00;99.90;;;23.29;56.90;102167.22;5116281;28;20059;-60
2022/06/11 09:49:00;;;;;;;31.20;8.15;;;22.90;99.90;;;23.37;58.05;102168.78;5098056;28;20059;-59
2022/06/11 09:51:42;;;;;;;30.60;8.73;;;22.90;99.90;;;23.44;57.42;102176.59;5115823;28;20051;-60
2022/06/11 09:54:29;;;;;;;29.80;8.50;;;23.00;99.90;;;23.67;58.31;102190.19;5115995;28;20039;-60
2022/06/11 09:57:11;;;;;;;24.95;8.55;;;23.20;99.90;;;23.68;58.03;102186.53;5097634;28;20467;-59
2022/06/11 09:59:45;;;;;;;32.33;9.63;;;23.30;99.90;;;23.67;58.08;102189.28;5097513;28;20078;-60
2022/06/11 10:02:25;;;;;;;34.38;10.18;;;23.30;99.90;;;23.61;58.10;102193.09;5115556;28;20035;-59
2022/06/11 10:04:57;;;;;;;27.77;8.05;;;23.20;99.90;;;23.49;57.50;102180.03;5115939;28;20054;-60
2022/06/11 10:07:31;;;;;;;26.25;7.72;;;23.20;99.90;;;22.94;56.74;102104.63;5116049;28;20039;-60
2022/06/11 10:10:07;;;;;;;27.27;7.90;;;23.10;99.90;;;23.42;56.69;102189.31;5115572;28;20179;-60
2022/06/11 10:12:44;;;;;;;24.27;7.78;;;23.00;99.90;;;23.47;57.26;102199.94;5097072;28;20075;-60
2022/06/11 10:15:23;;;;;;;23.92;7.30;;;23.10;99.90;;;23.40;55.80;102183.09;5097340;28;20519;-59
2022/06/11 10:17:59;;;;;;;27.80;8.32;;;23.00;99.90;;;23.45;57.24;102194.59;5115691;28;20096;-60
2022/06/11 10:20:36;;;;;;;32.25;8.30;;;23.10;99.90;;;23.46;58.54;102193.63;5115291;28;20043;-60
2022/06/11 10:23:15;;;;;;;28.25;8.45;;;23.10;99.90;;;23.37;56.27;102176.88;5115488;28;20122;-61
2022/06/11 10:25:52;;;;;;;25.63;7.75;;;23.10;99.90;;;23.46;55.74;102203.59;5115304;28;20059;-60
2022/06/11 10:28:27;;;;;;;28.75;7.75;;;23.10;99.90;;;23.50;56.97;102202.53;5115551;28;20040;-61
2022/06/11 10:30:58;;;;;;;27.05;7.72;;;23.10;99.90;;;23.58;55.99;102212.13;5115504;28;20441;-61
2022/06/11 10:33:35;;;;;;;28.50;7.88;;;23.20;99.90;;;23.60;55.62;102215.66;5115291;28;20075;-60
2022/06/11 10:36:12;;;;;;;27.27;7.88;;;23.20;99.90;;;23.59;56.64;102208.50;5115238;28;20108;-61